Station History

Weather Underground - logo

Station Historical Data
Daily Summary for September 28, 2017 Units:  English    Metric   Both
« Previous Day
Next Day »
Daily Weekly Monthly Yearly Custom
  High: Low: Average:
Temperature: 92.7 °F 54.3 °F 73.3 °F
Dew Point: 56.7 °F 43.9 °F 49.9 °F
Humidity: 78 % 20 % 49 %
Wind Speed: 6.9 mph 0.0 mph 0.9 mph
Wind Gust: 4.6 mph - -
Wind:- - SW
Pressure: 29.95 in 29.83 in -
Precipitation: 0.00 in    
Historical Graphs
 
 
Tabular Data for September 28, 2017
Time Temperature Dew Point Pressure Wind Wind Speed Wind Gust Humidity Rainfall Rate (Hourly)
00:00 61.7 °F 51.0 °F 29.88 in Calm     68 % 0.00 in
00:05 61.6 °F 51.3 °F 29.88 in Calm     69 % 0.00 in
00:10 61.9 °F 51.6 °F 29.88 in Calm     69 % 0.00 in
00:15 61.8 °F 52.3 °F 29.88 in Calm     71 % 0.00 in
00:20 61.6 °F 52.5 °F 29.88 in Calm     72 % 0.00 in
00:25 61.4 °F 50.7 °F 29.88 in Calm     68 % 0.00 in
00:30 61.8 °F 50.7 °F 29.88 in Calm     67 % 0.00 in
00:35 62.0 °F 50.9 °F 29.89 in Calm     67 % 0.00 in
00:40 62.0 °F 51.3 °F 29.88 in Calm     68 % 0.00 in
00:45 61.9 °F 50.8 °F 29.88 in Calm     67 % 0.00 in
00:50 61.8 °F 51.9 °F 29.89 in Calm     70 % 0.00 in
00:55 61.6 °F 51.3 °F 29.88 in Calm     69 % 0.00 in
01:00 61.5 °F 50.8 °F 29.88 in Calm     68 % 0.00 in
01:05 60.9 °F 51.8 °F 29.89 in Calm     72 % 0.00 in
01:10 60.6 °F 51.5 °F 29.89 in Calm     72 % 0.00 in
01:15 60.1 °F 51.4 °F 29.89 in Calm     73 % 0.00 in
01:20 59.8 °F 50.8 °F 29.89 in Calm     72 % 0.00 in
01:25 59.6 °F 50.9 °F 29.89 in Calm     73 % 0.00 in
01:30 59.5 °F 50.5 °F 29.89 in Calm     72 % 0.00 in
01:35 59.7 °F 51.0 °F 29.89 in Calm     73 % 0.00 in
01:40 59.8 °F 50.4 °F 29.89 in Calm     71 % 0.00 in
01:45 60.1 °F 50.3 °F 29.90 in Calm     70 % 0.00 in
01:50 60.1 °F 51.4 °F 29.89 in Calm     73 % 0.00 in
01:55 60.0 °F 50.6 °F 29.89 in Calm     71 % 0.00 in
02:00 59.9 °F 50.8 °F 29.89 in Calm     72 % 0.00 in
02:05 59.7 °F 51.0 °F 29.89 in SE 6.9 mph   73 % 0.00 in
02:10 59.3 °F 52.1 °F 29.89 in Calm     77 % 0.00 in
02:15 59.1 °F 51.5 °F 29.89 in Calm     76 % 0.00 in
02:20 58.7 °F 51.5 °F 29.90 in Calm     77 % 0.00 in
02:25 58.1 °F 50.9 °F 29.89 in Calm     77 % 0.00 in
02:30 58.1 °F 51.3 °F 29.89 in Calm     78 % 0.00 in
02:35 58.0 °F 50.8 °F 29.89 in Calm     77 % 0.00 in
02:40 58.0 °F 50.8 °F 29.90 in Calm     77 % 0.00 in
02:45 57.7 °F 50.5 °F 29.89 in Calm     77 % 0.00 in
02:50 57.6 °F 50.8 °F 29.89 in Calm     78 % 0.00 in
02:55 57.6 °F 50.4 °F 29.89 in Calm     77 % 0.00 in
03:00 57.8 °F 49.9 °F 29.89 in Calm     75 % 0.00 in
03:05 57.8 °F 49.9 °F 29.89 in Calm     75 % 0.00 in
03:10 58.0 °F 50.5 °F 29.89 in Calm     76 % 0.00 in
03:15 57.9 °F 50.0 °F 29.89 in Calm     75 % 0.00 in
03:20 57.9 °F 50.0 °F 29.89 in Calm     75 % 0.00 in
03:25 58.0 °F 50.8 °F 29.89 in Calm     77 % 0.00 in
03:30 57.9 °F 50.7 °F 29.89 in Calm     77 % 0.00 in
03:35 57.8 °F 50.6 °F 29.89 in Calm     77 % 0.00 in
03:40 57.6 °F 50.4 °F 29.89 in Calm     77 % 0.00 in
03:45 57.5 °F 50.3 °F 29.89 in Calm     77 % 0.00 in
03:50 57.5 °F 50.0 °F 29.89 in Calm     76 % 0.00 in
03:55 57.4 °F 49.5 °F 29.89 in Calm     75 % 0.00 in
04:00 57.3 °F 49.4 °F 29.89 in Calm     75 % 0.00 in
04:05 57.2 °F 48.6 °F 29.89 in Calm     73 % 0.00 in
04:10 58.0 °F 48.3 °F 29.89 in Calm     70 % 0.00 in
04:15 58.4 °F 50.5 °F 29.89 in Calm     75 % 0.00 in
04:20 58.4 °F 50.5 °F 29.88 in Calm     75 % 0.00 in
04:25 58.2 °F 50.0 °F 29.88 in Calm     74 % 0.00 in
04:31 57.9 °F 49.3 °F 29.89 in Calm     73 % 0.00 in
04:36 58.3 °F 49.3 °F 29.89 in Calm     72 % 0.00 in
04:41 58.4 °F 50.5 °F 29.89 in Calm     75 % 0.00 in
04:46 58.0 °F 50.1 °F 29.89 in Calm     75 % 0.00 in
04:51 57.7 °F 50.5 °F 29.89 in Calm     77 % 0.00 in
04:56 57.5 °F 50.3 °F 29.89 in Calm     77 % 0.00 in
05:01 56.8 °F 49.7 °F 29.89 in Calm     77 % 0.00 in
05:06 56.6 °F 49.8 °F 29.90 in Calm     78 % 0.00 in
05:11 56.6 °F 49.5 °F 29.90 in Calm     77 % 0.00 in
05:16 56.8 °F 49.7 °F 29.89 in Calm     77 % 0.00 in
05:21 56.8 °F 49.3 °F 29.90 in Calm     76 % 0.00 in
05:26 56.5 °F 49.0 °F 29.90 in Calm     76 % 0.00 in
05:31 56.2 °F 48.4 °F 29.90 in Calm     75 % 0.00 in
05:36 56.1 °F 48.6 °F 29.91 in Calm     76 % 0.00 in
05:41 55.7 °F 48.6 °F 29.91 in Calm     77 % 0.00 in
05:46 55.3 °F 48.6 °F 29.91 in Calm     78 % 0.00 in
05:51 54.9 °F 48.2 °F 29.91 in Calm     78 % 0.00 in
05:56 54.8 °F 48.1 °F 29.91 in Calm     78 % 0.00 in
06:01 54.7 °F 48.0 °F 29.91 in Calm     78 % 0.00 in
06:06 54.6 °F 47.9 °F 29.92 in Calm     78 % 0.00 in
06:11 54.6 °F 47.9 °F 29.92 in Calm     78 % 0.00 in
06:16 54.9 °F 47.8 °F 29.92 in Calm     77 % 0.00 in
06:21 55.1 °F 48.0 °F 29.92 in Calm     77 % 0.00 in
06:26 55.1 °F 48.4 °F 29.92 in Calm     78 % 0.00 in
06:31 55.0 °F 47.9 °F 29.92 in Calm     77 % 0.00 in
06:36 55.0 °F 47.9 °F 29.93 in Calm     77 % 0.00 in
06:41 55.0 °F 47.6 °F 29.93 in Calm     76 % 0.00 in
06:46 55.2 °F 48.1 °F 29.93 in SE 1.0 mph 1.0 mph 77 % 0.00 in
06:51 54.8 °F 47.0 °F 29.93 in Calm     75 % 0.00 in
06:56 54.4 °F 47.3 °F 29.93 in Calm     77 % 0.00 in
07:01 54.3 °F 46.9 °F 29.93 in Calm     76 % 0.00 in
07:06 54.3 °F 46.9 °F 29.93 in SE 1.0 mph   76 % 0.00 in
07:11 54.7 °F 46.6 °F 29.93 in SE 1.2 mph 1.2 mph 74 % 0.00 in
07:16 55.3 °F 46.8 °F 29.93 in SE 1.2 mph   73 % 0.00 in
07:21 55.8 °F 46.9 °F 29.93 in SE 2.3 mph 2.3 mph 72 % 0.00 in
07:26 56.3 °F 46.6 °F 29.93 in SE 1.2 mph 1.2 mph 70 % 0.00 in
07:31 56.8 °F 46.7 °F 29.94 in SE 1.2 mph   69 % 0.00 in
07:36 57.2 °F 46.7 °F 29.94 in Calm   0.1 mph 68 % 0.00 in
07:41 57.9 °F 47.0 °F 29.94 in Calm     67 % 0.00 in
07:46 58.4 °F 46.7 °F 29.94 in Calm     65 % 0.00 in
07:51 59.3 °F 47.1 °F 29.94 in SE 1.2 mph   64 % 0.00 in
07:56 60.3 °F 47.6 °F 29.94 in Calm     63 % 0.00 in
08:01 61.1 °F 47.5 °F 29.94 in Calm     61 % 0.00 in
08:06 62.7 °F 48.6 °F 29.94 in Calm     60 % 0.00 in
08:11 64.6 °F 49.5 °F 29.94 in Calm     58 % 0.00 in
08:16 66.8 °F 50.6 °F 29.94 in Calm     56 % 0.00 in
08:21 68.6 °F 51.3 °F 29.94 in Calm     54 % 0.00 in
08:26 69.6 °F 51.7 °F 29.94 in Calm     53 % 0.00 in
08:31 71.0 °F 49.7 °F 29.94 in Calm     47 % 0.00 in
08:36 72.4 °F 48.6 °F 29.95 in SSE 1.2 mph   43 % 0.00 in
08:41 73.5 °F 50.2 °F 29.94 in Calm     44 % 0.00 in
08:46 74.5 °F 50.5 °F 29.95 in Calm     43 % 0.00 in
08:51 74.1 °F 50.8 °F 29.95 in Calm     44 % 0.00 in
08:57 74.2 °F 50.3 °F 29.95 in Calm     43 % 0.00 in
09:02 74.2 °F 49.6 °F 29.95 in Calm     42 % 0.00 in
09:07 74.6 °F 50.6 °F 29.95 in South 2.3 mph 2.3 mph 43 % 0.00 in
09:12 75.5 °F 49.5 °F 29.95 in Calm     40 % 0.00 in
09:17 76.1 °F 50.7 °F 29.95 in SSE 1.2 mph 1.2 mph 41 % 0.00 in
09:22 76.1 °F 50.7 °F 29.95 in Calm     41 % 0.00 in
09:27 76.8 °F 51.3 °F 29.95 in SE 1.2 mph 1.2 mph 41 % 0.00 in
09:32 77.4 °F 50.5 °F 29.95 in SE 2.3 mph 2.3 mph 39 % 0.00 in
09:37 77.5 °F 48.4 °F 29.95 in East 2.3 mph 2.3 mph 36 % 0.00 in
09:42 77.3 °F 49.0 °F 29.95 in SSE 3.5 mph 3.5 mph 37 % 0.00 in
09:47 77.4 °F 48.3 °F 29.95 in NE 3.5 mph 3.5 mph 36 % 0.00 in
09:52 77.8 °F 49.4 °F 29.95 in SE 2.3 mph 2.3 mph 37 % 0.00 in
09:57 78.3 °F 51.3 °F 29.95 in South 1.2 mph   39 % 0.00 in
10:02 78.7 °F 50.2 °F 29.95 in SSE 3.5 mph 3.5 mph 37 % 0.00 in
10:07 79.0 °F 49.0 °F 29.95 in South 3.5 mph 3.5 mph 35 % 0.00 in
10:12 79.1 °F 49.8 °F 29.95 in SE 2.3 mph 2.3 mph 36 % 0.00 in
10:17 79.2 °F 48.4 °F 29.95 in East 2.3 mph 2.3 mph 34 % 0.00 in
10:22 79.5 °F 48.7 °F 29.95 in SW 2.3 mph 2.3 mph 34 % 0.00 in
10:27 79.8 °F 48.9 °F 29.95 in SE 3.5 mph 3.5 mph 34 % 0.00 in
10:32 80.1 °F 49.2 °F 29.95 in SSE 1.2 mph 1.2 mph 34 % 0.00 in
10:37 80.4 °F 48.7 °F 29.95 in South 3.5 mph 3.5 mph 33 % 0.00 in
10:42 80.8 °F 49.0 °F 29.95 in South 3.5 mph 3.5 mph 33 % 0.00 in
10:47 81.4 °F 48.7 °F 29.94 in ESE 3.5 mph 3.5 mph 32 % 0.00 in
10:52 81.8 °F 49.1 °F 29.94 in SE 2.3 mph 2.3 mph 32 % 0.00 in
10:57 82.1 °F 48.5 °F 29.94 in East 3.5 mph 3.5 mph 31 % 0.00 in
11:02 82.4 °F 50.4 °F 29.94 in SSE 3.5 mph 3.5 mph 33 % 0.00 in
11:07 82.7 °F 49.0 °F 29.94 in SSW 2.3 mph 2.3 mph 31 % 0.00 in
11:12 83.2 °F 49.4 °F 29.94 in South 3.5 mph 3.5 mph 31 % 0.00 in
11:17 83.2 °F 49.4 °F 29.94 in SE 2.3 mph 2.3 mph 31 % 0.00 in
11:22 83.9 °F 50.9 °F 29.94 in Calm     32 % 0.00 in
11:27 84.6 °F 48.8 °F 29.94 in SE 2.3 mph 2.3 mph 29 % 0.00 in
11:32 84.5 °F 48.8 °F 29.94 in NE 3.5 mph 3.5 mph 29 % 0.00 in
11:37 84.8 °F 49.0 °F 29.93 in ESE 2.3 mph 2.3 mph 29 % 0.00 in
11:38 84.9 °F 49.1 °F 29.94 in South 4.0 mph 4.0 mph 29 % 0.00 in
11:43 85.0 °F 49.2 °F 29.93 in ESE 3.5 mph 3.5 mph 29 % 0.00 in
11:48 85.1 °F 49.3 °F 29.93 in SE 3.5 mph 3.5 mph 29 % 0.00 in
11:53 85.5 °F 52.3 °F 29.93 in SE 2.0 mph 2.0 mph 32 % 0.00 in
11:58 85.9 °F 49.0 °F 29.93 in SSE 4.6 mph 4.6 mph 28 % 0.00 in
12:03 86.1 °F 49.2 °F 29.92 in ESE 3.5 mph 3.5 mph 28 % 0.00 in
12:08 86.6 °F 49.6 °F 29.92 in SE 2.3 mph 2.3 mph 28 % 0.00 in
12:13 87.2 °F 51.1 °F 29.92 in SE 3.0 mph 3.0 mph 29 % 0.00 in
12:18 87.4 °F 51.2 °F 29.92 in Calm     29 % 0.00 in
12:23 87.7 °F 50.6 °F 29.92 in SE 3.5 mph 3.5 mph 28 % 0.00 in
12:28 87.9 °F 50.7 °F 29.92 in South 1.2 mph 1.2 mph 28 % 0.00 in
12:33 88.4 °F 50.2 °F 29.91 in West 2.0 mph 2.0 mph 27 % 0.00 in
12:38 88.1 °F 51.8 °F 29.91 in SSE 2.0 mph 2.0 mph 29 % 0.00 in
12:43 88.4 °F 49.2 °F 29.91 in SSW 3.5 mph 3.5 mph 26 % 0.00 in
12:48 88.3 °F 48.0 °F 29.91 in East 2.3 mph 2.3 mph 25 % 0.00 in
12:53 88.3 °F 49.1 °F 29.91 in WNW 1.2 mph 1.2 mph 26 % 0.00 in
12:58 88.5 °F 51.2 °F 29.90 in SE 1.2 mph 1.2 mph 28 % 0.00 in
13:03 89.1 °F 49.7 °F 29.90 in SE 1.2 mph 1.2 mph 26 % 0.00 in
13:08 89.6 °F 54.1 °F 29.90 in South 2.3 mph   30 % 0.00 in
13:13 90.2 °F 53.6 °F 29.90 in SE 1.2 mph   29 % 0.00 in
13:18 90.4 °F 49.8 °F 29.89 in ENE 2.3 mph 2.3 mph 25 % 0.00 in
13:23 90.4 °F 51.9 °F 29.89 in South 1.2 mph   27 % 0.00 in
13:28 90.2 °F 51.7 °F 29.89 in Calm     27 % 0.00 in
13:33 90.1 °F 49.5 °F 29.89 in North 2.3 mph 2.3 mph 25 % 0.00 in
13:38 90.2 °F 50.7 °F 29.88 in NW 3.5 mph 3.5 mph 26 % 0.00 in
13:43 90.3 °F 49.7 °F 29.88 in WNW 1.2 mph 1.2 mph 25 % 0.00 in
13:48 90.4 °F 50.8 °F 29.88 in Calm     26 % 0.00 in
13:53 91.2 °F 53.5 °F 29.88 in NW 1.2 mph 1.2 mph 28 % 0.00 in
13:58 91.2 °F 50.5 °F 29.87 in Calm   0.5 mph 25 % 0.00 in
14:03 91.0 °F 45.6 °F 29.87 in WNW 1.2 mph   21 % 0.00 in
14:08 91.4 °F 50.6 °F 29.87 in NW 1.2 mph   25 % 0.00 in
14:13 91.6 °F 47.4 °F 29.87 in WNW 2.3 mph 2.3 mph 22 % 0.00 in
14:18 91.8 °F 48.7 °F 29.87 in SE 3.5 mph 3.5 mph 23 % 0.00 in
14:23 92.2 °F 46.6 °F 29.87 in East 2.3 mph 2.3 mph 21 % 0.00 in
14:28 92.4 °F 50.4 °F 29.86 in SSE 1.2 mph   24 % 0.00 in
14:33 92.1 °F 49.0 °F 29.86 in WNW 1.2 mph 1.2 mph 23 % 0.00 in
14:39 91.5 °F 48.5 °F 29.86 in NNE 1.2 mph 1.2 mph 23 % 0.00 in
14:44 92.0 °F 47.7 °F 29.86 in WNW 2.3 mph 2.3 mph 22 % 0.00 in
14:49 92.2 °F 49.1 °F 29.86 in Calm     23 % 0.00 in
14:54 92.1 °F 50.1 °F 29.86 in NNE 3.5 mph 3.5 mph 24 % 0.00 in
14:59 92.4 °F 48.0 °F 29.85 in WSW 2.3 mph 2.3 mph 22 % 0.00 in
15:04 92.7 °F 48.3 °F 29.85 in WNW 1.2 mph 1.2 mph 22 % 0.00 in
15:09 92.3 °F 50.3 °F 29.85 in NW 2.3 mph 2.3 mph 24 % 0.00 in
15:14 92.5 °F 49.3 °F 29.85 in NW 2.3 mph 2.3 mph 23 % 0.00 in
15:19 92.3 °F 48.0 °F 29.85 in WSW 1.2 mph   22 % 0.00 in
15:24 92.4 °F 48.0 °F 29.85 in NW 2.3 mph 2.3 mph 22 % 0.00 in
15:29 91.9 °F 47.6 °F 29.85 in NW 2.3 mph 2.3 mph 22 % 0.00 in
15:34 91.9 °F 47.6 °F 29.85 in WNW 1.2 mph 1.2 mph 22 % 0.00 in
15:39 91.9 °F 47.6 °F 29.85 in NW 3.5 mph 3.5 mph 22 % 0.00 in
15:44 91.7 °F 46.2 °F 29.84 in NW 1.2 mph 1.2 mph 21 % 0.00 in
15:49 91.9 °F 47.6 °F 29.84 in NNW 3.5 mph 3.5 mph 22 % 0.00 in
15:54 91.8 °F 48.7 °F 29.84 in WNW 3.5 mph 3.5 mph 23 % 0.00 in
15:59 91.5 °F 46.1 °F 29.84 in West 1.2 mph 1.2 mph 21 % 0.00 in
16:04 91.6 °F 48.6 °F 29.84 in WNW 3.5 mph 3.5 mph 23 % 0.00 in
16:09 91.5 °F 47.3 °F 29.84 in NW 2.3 mph 2.3 mph 22 % 0.00 in
16:14 91.2 °F 45.8 °F 29.84 in NW 2.3 mph 2.3 mph 21 % 0.00 in
16:16 91.2 °F 45.8 °F 29.84 in WNW 3.5 mph 3.5 mph 21 % 0.00 in
16:21 91.2 °F 45.8 °F 29.84 in NW 2.3 mph 2.3 mph 21 % 0.00 in
16:26 91.1 °F 44.4 °F 29.84 in NNW 2.3 mph 2.3 mph 20 % 0.00 in
16:31 90.8 °F 46.7 °F 29.84 in NNW 2.3 mph 2.3 mph 22 % 0.00 in
16:36 90.6 °F 44.0 °F 29.84 in NW 2.3 mph 2.3 mph 20 % 0.00 in
16:41 90.5 °F 43.9 °F 29.83 in WNW 3.5 mph 3.5 mph 20 % 0.00 in
16:47 90.4 °F 46.4 °F 29.83 in WSW 2.0 mph 2.0 mph 22 % 0.00 in
16:52 90.2 °F 45.0 °F 29.83 in WNW 3.5 mph 3.5 mph 21 % 0.00 in
16:57 90.0 °F 44.8 °F 29.83 in NW 2.3 mph 2.3 mph 21 % 0.00 in
17:02 89.9 °F 47.1 °F 29.83 in NW 2.3 mph 2.3 mph 23 % 0.00 in
17:07 89.7 °F 47.0 °F 29.83 in NNW 2.3 mph 2.3 mph 23 % 0.00 in
17:12 89.5 °F 46.8 °F 29.83 in NNW 2.3 mph 2.3 mph 23 % 0.00 in
17:17 89.4 °F 47.9 °F 29.83 in WNW 1.2 mph 1.2 mph 24 % 0.00 in
17:22 89.3 °F 46.6 °F 29.83 in NW 3.5 mph 3.5 mph 23 % 0.00 in
17:27 89.1 °F 47.6 °F 29.83 in WNW 1.2 mph 1.2 mph 24 % 0.00 in
17:32 88.9 °F 46.3 °F 29.83 in NNW 2.3 mph 2.3 mph 23 % 0.00 in
17:37 88.6 °F 47.2 °F 29.83 in WNW 1.2 mph 1.2 mph 24 % 0.00 in
17:42 88.3 °F 46.9 °F 29.83 in WNW 1.2 mph 1.2 mph 24 % 0.00 in
17:47 88.0 °F 47.8 °F 29.83 in WNW 1.2 mph   25 % 0.00 in
17:52 87.5 °F 48.4 °F 29.83 in WNW 1.2 mph 1.2 mph 26 % 0.00 in
17:57 87.2 °F 48.1 °F 29.83 in NNW 1.2 mph   26 % 0.00 in
18:02 86.8 °F 48.8 °F 29.83 in Calm     27 % 0.00 in
18:07 86.3 °F 49.4 °F 29.83 in Calm     28 % 0.00 in
18:12 85.8 °F 49.9 °F 29.83 in Calm     29 % 0.00 in
18:17 85.2 °F 50.3 °F 29.83 in Calm     30 % 0.00 in
18:22 84.5 °F 50.5 °F 29.83 in Calm     31 % 0.00 in
18:27 83.9 °F 50.0 °F 29.83 in Calm     31 % 0.00 in
18:32 83.4 °F 52.9 °F 29.83 in Calm     35 % 0.00 in
18:37 82.4 °F 52.8 °F 29.83 in Calm     36 % 0.00 in
18:42 81.2 °F 52.4 °F 29.83 in Calm     37 % 0.00 in
18:47 80.4 °F 53.2 °F 29.83 in Calm     39 % 0.00 in
18:52 79.6 °F 53.1 °F 29.83 in Calm     40 % 0.00 in
18:57 78.5 °F 52.2 °F 29.83 in Calm     40 % 0.00 in
19:02 77.8 °F 52.9 °F 29.83 in Calm     42 % 0.00 in
19:07 77.2 °F 53.0 °F 29.83 in Calm     43 % 0.00 in
19:12 76.5 °F 53.6 °F 29.83 in Calm     45 % 0.00 in
19:17 76.1 °F 53.2 °F 29.83 in Calm     45 % 0.00 in
19:22 75.6 °F 54.5 °F 29.83 in Calm     48 % 0.00 in
19:24 75.4 °F 54.3 °F 29.83 in Calm     48 % 0.00 in
19:29 75.1 °F 54.1 °F 29.83 in Calm     48 % 0.00 in
19:34 74.7 °F 54.3 °F 29.83 in Calm     49 % 0.00 in
19:39 74.2 °F 53.2 °F 29.83 in Calm     48 % 0.00 in
19:44 73.9 °F 53.5 °F 29.83 in Calm     49 % 0.00 in
19:49 73.7 °F 54.4 °F 29.83 in Calm     51 % 0.00 in
19:50 73.7 °F 54.4 °F 29.83 in Calm     51 % 0.00 in
19:55 73.4 °F 54.7 °F 29.83 in Calm     52 % 0.00 in
20:00 73.3 °F 54.6 °F 29.84 in Calm     52 % 0.00 in
20:05 73.2 °F 54.5 °F 29.84 in Calm     52 % 0.00 in
20:11 73.0 °F 55.9 °F 29.84 in Calm     55 % 0.00 in
20:16 72.6 °F 54.5 °F 29.84 in Calm     53 % 0.00 in
20:21 72.4 °F 54.3 °F 29.84 in Calm     53 % 0.00 in
20:25 72.2 °F 54.6 °F 29.84 in Calm     54 % 0.00 in
20:26 72.2 °F 54.6 °F 29.84 in Calm     54 % 0.00 in
20:29 72.2 °F 55.1 °F 29.84 in Calm     55 % 0.00 in
20:31 72.1 °F 55.5 °F 29.84 in Calm     56 % 0.00 in
20:36 71.8 °F 56.7 °F 29.84 in Calm     59 % 0.00 in
20:39 71.6 °F 55.1 °F 29.84 in Calm     56 % 0.00 in
20:44 71.3 °F 55.8 °F 29.84 in Calm     58 % 0.00 in
20:49 71.2 °F 55.7 °F 29.84 in Calm     58 % 0.00 in
20:54 71.1 °F 56.0 °F 29.85 in Calm     59 % 0.00 in
20:59 71.1 °F 54.6 °F 29.85 in Calm     56 % 0.00 in
21:04 72.0 °F 53.9 °F 29.85 in Calm     53 % 0.00 in
21:09 72.6 °F 52.9 °F 29.85 in Calm     50 % 0.00 in
21:14 73.0 °F 52.1 °F 29.85 in Calm     48 % 0.00 in
21:19 73.3 °F 51.3 °F 29.85 in Calm     46 % 0.00 in
21:24 73.5 °F 50.9 °F 29.85 in Calm     45 % 0.00 in
21:29 73.5 °F 50.9 °F 29.85 in Calm     45 % 0.00 in
21:34 73.2 °F 50.6 °F 29.85 in NW 1.2 mph   45 % 0.00 in
21:39 73.3 °F 50.1 °F 29.85 in NW 1.2 mph 1.2 mph 44 % 0.00 in
21:44 73.7 °F 49.2 °F 29.85 in Calm   0.3 mph 42 % 0.00 in
21:49 74.0 °F 48.8 °F 29.85 in WNW 1.2 mph 1.2 mph 41 % 0.00 in
21:54 74.2 °F 48.3 °F 29.85 in Calm     40 % 0.00 in
21:59 74.2 °F 47.6 °F 29.85 in Calm     39 % 0.00 in
22:04 74.3 °F 47.7 °F 29.85 in WNW 1.2 mph   39 % 0.00 in
22:09 74.3 °F 47.7 °F 29.85 in WNW 1.2 mph 1.2 mph 39 % 0.00 in
22:14 74.1 °F 47.6 °F 29.85 in Calm     39 % 0.00 in
22:19 74.0 °F 47.5 °F 29.85 in WNW 1.2 mph   39 % 0.00 in
22:24 73.7 °F 47.9 °F 29.85 in Calm     40 % 0.00 in
22:29 73.3 °F 47.5 °F 29.85 in WNW 1.2 mph   40 % 0.00 in
22:34 73.0 °F 47.9 °F 29.85 in Calm     41 % 0.00 in
22:39 72.5 °F 49.3 °F 29.85 in Calm     44 % 0.00 in
22:45 71.7 °F 50.4 °F 29.85 in Calm     47 % 0.00 in
22:50 70.6 °F 50.0 °F 29.85 in Calm     48 % 0.00 in
22:55 69.2 °F 49.8 °F 29.85 in Calm     50 % 0.00 in
23:00 68.3 °F 50.0 °F 29.85 in Calm     52 % 0.00 in
23:05 67.7 °F 50.9 °F 29.86 in Calm     55 % 0.00 in
23:10 67.1 °F 51.4 °F 29.86 in Calm     57 % 0.00 in
23:15 66.2 °F 51.9 °F 29.86 in Calm     60 % 0.00 in
23:20 65.6 °F 51.8 °F 29.86 in Calm     61 % 0.00 in
23:25 65.2 °F 51.8 °F 29.87 in Calm     62 % 0.00 in
23:30 65.0 °F 51.2 °F 29.86 in Calm     61 % 0.00 in
23:35 65.1 °F 51.3 °F 29.87 in Calm     61 % 0.00 in
23:40 65.3 °F 51.1 °F 29.87 in Calm     60 % 0.00 in
23:45 65.3 °F 50.6 °F 29.87 in SE 1.2 mph   59 % 0.00 in
23:50 65.1 °F 50.9 °F 29.87 in Calm     60 % 0.00 in
23:55 64.9 °F 50.7 °F 29.87 in Calm     60 % 0.00 in
Park Place, Exeter, Tulare County, California, USA
Compliments of Weather Underground - 2.75 mb